NEODyS-2

Near Earth Objects - Dynamic Site
NEODyS ∴ Observatories ∴ Site 691 ∴ Obs & residuals
Contact »
691  ▹ 
OBSERVATIONS AND RESIDUALS

691-Steward Observatory, Kitt Peak-Spacewatch

Detections | Residuals | Detections & Residuals

[1-200] [201-400] [401-600] [601-800] [801-1000] [1001-1200] [1201-1400] [1401-1600] [1601-1800] [1801-2000] [2001-2200] [2201-2400] [2401-2600] [2601-2800] [2801-3000] [3001-3200] [3201-3400] [3401-3600] [3601-3800] [3801-4000] [4001-4200] [4201-4400] [4401-4600] [4601-4800] [4801-5000] [5001-5200] [5201-5400] [5401-5600] [5601-5800] [5801-6000] [6001-6200] [6201-6400] [6401-6600] [6601-6800] [6801-7000] [7001-7200] [7201-7400] [7401-7600] [7601-7800] [7801-8000] [8001-8200] [8201-8400] [8401-8600] [8601-8800] [8801-9000] [9001-9200] [9201-9400] [9401-9600] [9601-9800] [9801-10000] [10001-10200] [10201-10400] [10401-10600] [10601-10800] [10801-11000] [11001-11200] [11201-11400] [11401-11600] [11601-11800] [11801-12000] [12001-12200] [12201-12400] [12401-12600] [12601-12800] [12801-13000] [13001-13200] [13201-13400] [13401-13600] [13601-13800] [13801-14000] [14001-14200] [14201-14400] [14401-14600] [14601-14800] [14801-15000] [15001-15200] [15201-15400] [15401-15600] [15601-15800] [15801-16000] [16001-16200] [16201-16400] [16401-16600] [16601-16800] [16801-17000] [17001-17200] [17201-17400] [17401-17600] [17601-17800] [17801-18000] [18001-18200] [18201-18400] [18401-18600] [18601-18800] [18801-19000] [19001-19200] [19201-19400] [19401-19600] [19601-19800] [19801-20000] [20001-20200] [20201-20400] [20401-20600] [20601-20800] [20801-21000] [21001-21200] [21201-21400] [21401-21600] [21601-21800] [21801-22000] [22001-22200] [22201-22400] [22401-22600] [22601-22800] [22801-23000] [23001-23200] [23201-23400] [23401-23600] [23601-23800] [23801-24000] [24001-24200] [24201-24400] [24401-24600] [24601-24800] [24801-25000] [25001-25200] [25201-25400] [25401-25600] [25601-25800] [25801-26000] [26001-26200] [26201-26400] [26401-26600] [26601-26800] [26801-27000] [27001-27200] [27201-27400] [27401-27600] [27601-27800] [27801-28000] [28001-28200] [28201-28400] [28401-28600] [28601-28800] [28801-29000] [29001-29200] [29201-29400] [29401-29600] [29601-29800] [29801-30000] [30001-30200] [30201-30400] [30401-30600] [30601-30800] [30801-31000] [31001-31200] [31201-31400] [31401-31600] [31601-31800] [31801-32000] [32001-32200] [32201-32400] [32401-32600] [32601-32800] [32801-33000] [33001-33200] [33201-33400] [33401-33600] [33601-33800] [33801-34000] [34001-34200] [34201-34400] [34401-34600] [34601-34800] [34801-35000] [35001-35200] [35201-35400] [35401-35600] [35601-35800] [35801-36000] [36001-36200] [36201-36400] [36401-36600] [36601-36800] [36801-37000] [37001-37200] [37201-37400] [37401-37600] [37601-37800] [37801-38000] [38001-38200] [38201-38400] [38401-38600] [38601-38800] [38801-39000] [39001-39200] [39201-39400] [39401-39600] [39601-39800] [39801-40000] [40001-40200] [40201-40400] [40401-40600] [40601-40800] [40801-41000] [41001-41200] [41201-41400] [41401-41600] [41601-41800] [41801-42000] [42001-42200] [42201-42400] [42401-42600] [42601-42800] [42801-43000] [43001-43200] [43201-43400] [43401-43600] [43601-43800] [43801-44000] [44001-44200] [44201-44400] [44401-44600] [44601-44800] [44801-45000] [45001-45200] [45201-45400] [45401-45600] [45601-45800] [45801-46000] [46001-46200] [46201-46400] [46401-46600] [46601-46800] [46801-47000] [47001-47200] [47201-47400] [47401-47600] [47601-47800] [47801-48000] [48001-48200] [48201-48400] [48401-48600] [48601-48800] [48801-49000] [49001-49200] [49201-49400] [49401-49600] [49601-49800] [49801-50000] [50001-50200] [50201-50388]

Designation T Tech N Date Right Ascension Declination Apparent Magnitude Star Catalog Site code χ Used A Used M
yr-mo-day precision hr:min:sec precision rms F bias residual deg min sec precision rms F bias residual mag/col rms residual
2010OL100 O C 2010-08-03.27212 1.000E-05 15:54:49.050 1.500E-01 0.500 F 0.083 -0.588 +54° 23' 59.90" 1.000E-01 0.500 F 0.274 0.454 19.8 V 0.70 -0.53 o 691 1.52 Yes Yes
2010OL100 O C 2010-08-03.27563 1.000E-05 15:54:47.930 1.500E-01 0.500 F 0.083 -0.441 +54° 24' 06.90" 1.000E-01 0.500 F 0.274 0.295 20.0 V 0.70 -0.33 o 691 1.08 Yes Yes
2010OL100 O C 2010-08-03.27928 1.000E-05 15:54:46.770 1.500E-01 0.500 F 0.083 -0.255 +54° 24' 14.20" 1.000E-01 0.500 F 0.274 0.154 20.0 V 0.70 -0.33 o 691 0.61 Yes Yes
2000DH8 O C 2010-08-04.18524 1.000E-05 16:23:39.860 1.500E-01 0.500 F 0.101 -0.771 +30° 28' 08.20" 1.000E-01 0.500 F 0.224 -0.348 21.7 V 0.70 0.25 o 691 1.69 Yes Yes
2010ON101 O C 2010-08-04.18524 1.000E-05 16:20:53.240 1.500E-01 0.500 F 0.145 -0.713 +29° 41' 48.50" 1.000E-01 0.500 F 0.209 0.028 19.2 V 0.70 -0.10 o 691 1.46 Yes Yes
2000DH8 O C 2010-08-04.18835 1.000E-05 16:23:40.120 1.500E-01 0.500 F 0.101 -0.574 +30° 28' 00.90" 1.000E-01 0.500 F 0.224 -1.183 21.0 V 0.70 -0.45 o 691 2.63 Yes Yes
2010ON101 O C 2010-08-04.18835 1.000E-05 16:20:55.000 1.500E-01 0.500 F 0.145 -0.152 +29° 41' 47.10" 1.000E-01 0.500 F 0.209 -0.139 19.3 V 0.70 0.00 o 691 0.42 Yes Yes
2000DH8 O C 2010-08-04.19117 1.000E-05 16:23:40.310 1.500E-01 0.500 F 0.101 -0.987 +30° 27' 56.00" 1.000E-01 0.500 F 0.224 -0.219 20.9 V 0.70 -0.55 o 691 2.03 Yes Yes
2010ON101 O C 2010-08-04.19117 1.000E-05 16:20:56.540 1.500E-01 0.500 F 0.145 -0.376 +29° 41' 46.10" 1.000E-01 0.500 F 0.209 -0.013 19.2 V 0.70 -0.10 o 691 0.77 Yes Yes
2010OL101 O C 2010-08-04.21490 1.000E-05 17:44:08.180 1.500E-01 0.500 F 0.034 -0.207 +54° 05' 34.20" 1.000E-01 0.500 F 0.233 0.952 20.0 V 0.70 -0.48 o 691 2.01 Yes Yes
2010OL101 O C 2010-08-04.21782 1.000E-05 17:44:09.300 1.500E-01 0.500 F 0.034 -0.127 +54° 05' 24.70" 1.000E-01 0.500 F 0.233 -0.125 20.0 V 0.70 -0.48 o 691 0.37 Yes Yes
2010OL101 O C 2010-08-04.22142 1.000E-05 17:44:10.600 1.500E-01 0.500 F 0.034 -0.742 +54° 05' 14.80" 1.000E-01 0.500 F 0.233 0.369 20.0 V 0.70 -0.48 o 691 1.71 Yes Yes
2010OL100 O C H 2010-08-05.16149 1.000E-05 15:44:30.890 1.500E-01 0.500 F 0.124 -1.241 +55° 29' 40.90" 1.000E-01 0.500 F 0.225 0.260 20.6 V 0.70 0.25 o 691 2.58 Yes Yes
2010OL100 O C H 2010-08-05.16433 1.000E-05 15:44:30.040 1.500E-01 0.500 F 0.124 0.002 +55° 29' 46.40" 1.000E-01 0.500 F 0.225 0.066 20.9 V 0.70 0.55 o 691 0.14 Yes Yes
2010NG1 O C 2010-08-05.18664 1.000E-05 16:13:21.630 1.500E-01 0.500 F 0.088 -0.332 +37° 48' 07.00" 1.000E-01 0.500 F 0.228 -0.421 20.9 V 0.70 -0.14 o 691 1.09 Yes Yes
2010NG1 O C 2010-08-05.18954 1.000E-05 16:13:21.680 1.500E-01 0.500 F 0.088 0.192 +37° 47' 57.70" 1.000E-01 0.500 F 0.228 -0.272 21.1 V 0.70 0.06 o 691 0.67 Yes Yes
2010NG1 O C 2010-08-05.19311 1.000E-05 16:13:21.590 1.500E-01 0.500 F 0.088 -0.964 +37° 47' 45.40" 1.000E-01 0.500 F 0.228 -0.935 20.4 V 0.70 -0.64 o 691 2.73 Yes Yes
2010OL101 O C t 2010-08-05.21573 1.000E-05 17:50:42.070 1.500E-01 0.500 F 0.062 0.098 +53° 16' 20.30" 1.000E-01 0.500 F 0.197 -0.595 21.5 V 0.70 1.06 o 691 1.24 Yes Yes
2010OL101 O C t 2010-08-05.21861 1.000E-05 17:50:43.160 1.500E-01 0.500 F 0.062 0.122 +53° 16' 12.00" 1.000E-01 0.500 F 0.197 -0.075 20.4 V 0.70 -0.04 o 691 0.29 Yes Yes
2010OL101 O C t 2010-08-05.22159 1.000E-05 17:50:44.280 1.500E-01 0.500 F 0.062 0.074 +53° 16' 02.30" 1.000E-01 0.500 F 0.197 -0.641 20.5 V 0.70 0.06 o 691 1.33 Yes Yes
2010OE22 O C t 2010-08-05.24894 1.000E-05 18:36:25.660 1.500E-01 0.500 F 0.065 0.565 +32° 33' 39.80" 1.000E-01 0.500 F 0.277 -1.243 21.1 V 0.70 0.62 o 691 2.89 Yes Yes
2010OE22 O C t 2010-08-05.25187 1.000E-05 18:36:26.620 1.500E-01 0.500 F 0.065 0.013 +32° 33' 26.10" 1.000E-01 0.500 F 0.277 -0.677 20.7 V 0.70 0.22 o 691 1.43 Yes Yes
2010OD101 O C H 2010-08-05.33092 1.000E-05 01:06:03.930 1.500E-01 0.500 F 0.016 -0.059 +45° 13' 53.00" 1.000E-01 0.500 F 0.244 0.511 20.9 V 0.70 0.08 o 691 1.06 Yes Yes
2010OD101 O C H 2010-08-05.33388 1.000E-05 01:06:04.350 1.500E-01 0.500 F 0.016 0.163 +45° 13' 47.90" 1.000E-01 0.500 F 0.244 0.321 21.2 V 0.70 0.38 o 691 0.73 Yes Yes
2010JM151 O C 2010-08-05.41031 1.000E-05 03:36:47.450 1.500E-01 0.500 F -0.087 -0.001 +40° 27' 52.40" 1.000E-01 0.500 F 0.207 0.233 20.9 V 0.70 0.37 o 691 0.50 Yes Yes
2010JM151 O C 2010-08-05.41313 1.000E-05 03:36:47.460 1.500E-01 0.500 F -0.087 0.004 +40° 27' 59.60" 1.000E-01 0.500 F 0.207 0.102 20.7 V 0.70 0.17 o 691 0.22 Yes Yes
2010JM151 O C 2010-08-05.41593 1.000E-05 03:36:47.450 1.500E-01 0.500 F -0.087 -0.213 +40° 28' 06.20" 1.000E-01 0.500 F 0.207 -0.575 20.8 V 0.70 0.27 o 691 1.29 Yes Yes
2010OF101 O C 2010-08-06.18533 1.000E-05 15:59:01.410 1.500E-01 0.500 F 0.129 -0.072 +30° 32' 41.90" 1.000E-01 0.500 F 0.176 -0.017 21.0 V 0.70 -0.04 o 691 0.15 Yes Yes
2010OF101 O C 2010-08-06.18811 1.000E-05 15:59:01.700 1.500E-01 0.500 F 0.129 -0.387 +30° 32' 36.70" 1.000E-01 0.500 F 0.176 -0.484 20.6 V 0.70 -0.44 o 691 1.25 Yes Yes
2010OF101 O C 2010-08-06.19089 1.000E-05 15:59:02.050 1.500E-01 0.500 F 0.129 0.071 +30° 32' 32.40" 1.000E-01 0.500 F 0.176 -0.049 20.8 V 0.70 -0.24 o 691 0.17 Yes Yes
2010JE O C t 2010-08-06.20195 1.000E-05 14:26:34.380 1.500E-01 0.500 F 0.076 0.447 +42° 48' 31.70" 1.000E-01 0.500 F 0.353 0.106 21.1 V 0.70 0.41 o 691 0.99 Yes Yes
2010JE O C t 2010-08-06.20524 1.000E-05 14:26:35.350 1.500E-01 0.500 F 0.076 0.132 +42° 48' 42.10" 1.000E-01 0.500 F 0.353 -0.503 21.1 V 0.70 0.41 o 691 1.11 Yes Yes
2010JE O C t 2010-08-06.20891 1.000E-05 14:26:36.500 1.500E-01 0.500 F 0.076 0.516 +42° 48' 54.70" 1.000E-01 0.500 F 0.353 -0.178 20.5 V 0.70 -0.19 o 691 1.16 Yes Yes
2010OL101 O C t 2010-08-06.22760 1.000E-05 17:57:16.840 1.500E-01 0.500 F 0.091 0.298 +52° 23' 31.80" 1.000E-01 0.500 F 0.204 -0.299 20.5 V 0.70 0.10 o 691 0.87 Yes Yes
2010OL101 O C t 2010-08-06.23046 1.000E-05 17:57:17.920 1.500E-01 0.500 F 0.091 0.383 +52° 23' 22.20" 1.000E-01 0.500 F 0.204 -0.594 20.3 V 0.70 -0.10 o 691 1.45 Yes Yes
2010EX119 O C H 2010-08-06.33257 1.000E-05 23:33:39.870 1.500E-01 0.500 F -0.034 0.177 +40° 47' 57.10" 1.000E-01 0.500 F 0.200 0.089 20.3 V 0.70 0.09 o 691 0.40 Yes Yes
2010EX119 O C H 2010-08-06.33544 1.000E-05 23:33:39.450 1.500E-01 0.500 F -0.034 -0.173 +40° 47' 52.60" 1.000E-01 0.500 F 0.200 -0.361 20.3 V 0.70 0.09 o 691 0.81 Yes Yes
2010OK126 O C H 2010-08-06.44834 1.000E-05 02:48:52.570 1.500E-01 0.500 F -0.225 -0.008 -08° 33' 39.40" 1.000E-01 0.500 F 0.144 -0.688 o 691 1.41 Yes No
2010OK126 O C H 2010-08-06.45116 1.000E-05 02:48:52.020 1.500E-01 0.500 F -0.225 0.153 -08° 33' 22.40" 1.000E-01 0.500 F 0.144 0.541 o 691 1.15 Yes No
2010PD57 O C 2010-08-10.21702 1.000E-05 21:52:42.480 1.500E-01 0.500 F 0.063 0.364 -04° 30' 47.20" 1.000E-01 0.500 F 0.297 0.011 20.4 V 0.70 -0.32 o 691 0.74 Yes Yes
2010PD57 O C 2010-08-10.23463 1.000E-05 21:52:43.000 1.500E-01 0.500 F 0.063 -0.130 -04° 30' 01.50" 1.000E-01 0.500 F 0.297 -0.065 20.7 V 0.70 -0.02 o 691 0.30 Yes Yes
2010PD57 O C 2010-08-10.25223 1.000E-05 21:52:43.510 1.500E-01 0.500 F 0.063 -0.545 -04° 29' 15.40" 1.000E-01 0.500 F 0.297 0.244 20.7 V 0.70 -0.02 o 691 1.21 Yes Yes
2010XT45 O C 2010-08-10.44494 1.000E-05 04:39:45.650 1.500E-01 0.500 F -0.154 -0.384 +19° 15' 52.20" 1.000E-01 0.500 F 0.201 0.154 o 691 0.83 Yes No
2006GZ O C H 2010-08-10.44739 1.000E-05 04:46:48.140 1.500E-01 0.500 F -0.220 -0.774 +19° 41' 16.80" 1.000E-01 0.500 F 0.140 -0.688 21.5 V 0.70 -0.25 o 691 2.07 Yes Yes
2010XT45 O C 2010-08-10.45757 1.000E-05 04:39:47.280 1.500E-01 0.500 F -0.154 -0.545 +19° 15' 50.20" 1.000E-01 0.500 F 0.201 0.230 o 691 1.19 Yes No
2006GZ O C H 2010-08-10.46004 1.000E-05 04:46:50.370 1.500E-01 0.500 F -0.220 0.451 +19° 41' 32.20" 1.000E-01 0.500 F 0.140 0.784 21.2 V 0.70 -0.55 o 691 1.82 Yes Yes
2010XT45 O C 2010-08-10.47022 1.000E-05 04:39:48.930 1.500E-01 0.500 F -0.154 -0.433 +19° 15' 48.40" 1.000E-01 0.500 F 0.201 0.517 o 691 1.35 Yes No
2006GZ O C H 2010-08-10.47269 1.000E-05 04:46:52.580 1.500E-01 0.500 F -0.220 1.436 +19° 41' 43.30" 1.000E-01 0.500 F 0.140 -2.034 21.3 V 0.70 -0.45 o 691 4.96 No Yes
2010OL101 O C t 2010-08-11.20754 1.000E-05 18:28:37.430 1.500E-01 0.500 F 0.105 0.224 +47° 17' 16.20" 1.000E-01 0.500 F 0.220 -0.357 20.3 V 0.70 0.10 o 691 0.87 Yes Yes
2010OL101 O C t 2010-08-11.21159 1.000E-05 18:28:38.840 1.500E-01 0.500 F 0.105 0.092 +47° 16' 59.70" 1.000E-01 0.500 F 0.220 0.035 20.0 V 0.70 -0.20 o 691 0.20 Yes Yes
2010OL100 O C t 2010-08-11.22147 1.000E-05 15:06:08.910 1.500E-01 0.500 F -0.078 0.476 +58° 40' 54.70" 1.000E-01 0.500 F 0.225 -0.450 20.4 V 0.70 -0.03 o 691 1.35 Yes Yes
2010OL100 O C t 2010-08-11.22471 1.000E-05 15:06:07.560 1.500E-01 0.500 F -0.078 0.908 +58° 40' 59.70" 1.000E-01 0.500 F 0.225 -0.725 o 691 2.39 Yes No
2010OL100 O C t 2010-08-11.22819 1.000E-05 15:06:05.940 1.500E-01 0.500 F -0.078 0.041 +58° 41' 05.90" 1.000E-01 0.500 F 0.225 -0.185 o 691 0.39 Yes No
2010OB101 O C 2010-08-11.30063 1.000E-05 00:29:47.990 1.500E-01 0.500 F -0.063 -0.005 +29° 48' 26.30" 1.000E-01 0.500 F 0.140 0.234 20.8 V 0.70 -0.48 o 691 0.47 Yes Yes
2010OB101 O C 2010-08-11.30744 1.000E-05 00:29:47.120 1.500E-01 0.500 F -0.063 -0.135 +29° 48' 25.40" 1.000E-01 0.500 F 0.140 0.009 21.0 V 0.70 -0.28 o 691 0.27 Yes Yes
2010OB101 O C 2010-08-11.31748 1.000E-05 00:29:45.880 1.500E-01 0.500 F -0.063 0.269 +29° 48' 23.90" 1.000E-01 0.500 F 0.140 -0.476 20.7 V 0.70 -0.58 o 691 1.10 Yes Yes
2000ES70 O C H 2010-08-12.18176 1.000E-05 15:37:07.030 1.500E-01 0.500 F 0.243 0.018 +09° 38' 50.50" 1.000E-01 0.500 F 0.181 -0.272 o 691 0.54 Yes No
2000ES70 O C H 2010-08-12.20916 1.000E-05 15:37:08.350 1.500E-01 0.500 F 0.243 0.311 +09° 38' 30.30" 1.000E-01 0.500 F 0.181 -0.419 o 691 1.05 Yes No
2000PQ27 O C 2010-08-13.29297 1.000E-05 23:26:41.360 1.500E-01 0.500 F -0.040 -0.223 +00° 09' 38.40" 1.000E-01 0.500 F 0.376 0.030 o 691 0.45 Yes No
2000PQ27 O C 2010-08-13.31056 1.000E-05 23:26:41.940 1.500E-01 0.500 F -0.040 -0.357 +00° 10' 06.40" 1.000E-01 0.500 F 0.376 -0.047 o 691 0.72 Yes No
2000PQ27 O C 2010-08-13.32816 1.000E-05 23:26:42.520 1.500E-01 0.500 F -0.040 -0.374 +00° 10' 34.50" 1.000E-01 0.500 F 0.376 -0.044 o 691 0.76 Yes No
Aditi O C 2010-08-13.45290 1.000E-05 04:27:28.370 1.500E-01 0.500 F -0.272 -0.083 +23° 22' 41.80" 1.000E-01 0.500 F 0.197 0.522 o 691 1.06 Yes No
Aditi O C 2010-08-13.46554 1.000E-05 04:27:30.980 1.500E-01 0.500 F -0.272 -0.298 +23° 23' 01.40" 1.000E-01 0.500 F 0.197 -0.061 o 691 0.61 Yes No
Aditi O C 2010-08-13.47819 1.000E-05 04:27:33.610 1.500E-01 0.500 F -0.272 -0.246 +23° 23' 21.50" 1.000E-01 0.500 F 0.197 -0.151 o 691 0.58 Yes No
2000OG O C H 2010-08-14.18000 1.000E-05 15:39:04.160 1.500E-01 0.500 F 0.264 0.794 +07° 49' 51.10" 1.000E-01 0.500 F 0.191 -0.308 o 691 1.71 Yes No
2000OG O C H 2010-08-14.20398 1.000E-05 15:39:04.200 1.500E-01 0.500 F 0.264 -0.029 +07° 49' 39.10" 1.000E-01 0.500 F 0.191 -0.523 o 691 1.05 Yes No
2000OG O C H 2010-08-14.22795 1.000E-05 15:39:04.300 1.500E-01 0.500 F 0.264 -0.017 +07° 49' 26.60" 1.000E-01 0.500 F 0.191 -1.236 o 691 2.48 Yes No
2010PP2 O C 2010-08-14.25469 1.000E-05 21:52:52.790 1.500E-01 0.500 F -0.071 -0.123 -07° 03' 05.20" 1.000E-01 0.500 F 0.223 -0.134 o 691 0.37 Yes No
2010PP2 O C 2010-08-14.27232 1.000E-05 21:52:53.490 1.500E-01 0.500 F -0.071 -0.106 -07° 02' 23.00" 1.000E-01 0.500 F 0.223 -0.010 o 691 0.22 Yes No
2010PP2 O C 2010-08-14.28996 1.000E-05 21:52:54.170 1.500E-01 0.500 F -0.071 -0.256 -07° 01' 40.80" 1.000E-01 0.500 F 0.223 0.045 o 691 0.53 Yes No
2010PY75 O C 2010-08-19.17123 1.000E-05 16:13:12.950 1.500E-01 0.500 F 0.129 -0.209 +31° 55' 09.60" 1.000E-01 0.500 F 0.236 0.129 19.9 V 0.70 0.20 o 691 0.51 Yes Yes
2010PY75 O C 2010-08-19.17384 1.000E-05 16:13:12.210 1.500E-01 0.500 F 0.129 -0.256 +31° 55' 13.90" 1.000E-01 0.500 F 0.236 0.133 20.1 V 0.70 0.40 o 691 0.60 Yes Yes
2010PY75 O C 2010-08-19.17660 1.000E-05 16:13:11.440 1.500E-01 0.500 F 0.129 -0.149 +31° 55' 18.20" 1.000E-01 0.500 F 0.236 -0.107 20.0 V 0.70 0.30 o 691 0.38 Yes Yes
2010OL100 O C t 2010-08-19.18913 1.000E-05 13:59:17.520 1.500E-01 0.500 F 0.089 -0.040 +61° 38' 43.20" 1.000E-01 0.500 F 0.176 -0.507 21.2 V 0.70 0.60 o 691 1.04 Yes Yes
2010OL100 O C t 2010-08-19.19295 1.000E-05 13:59:15.070 1.500E-01 0.500 F 0.089 -1.452 +61° 38' 45.70" 1.000E-01 0.500 F 0.176 -0.803 20.8 V 0.70 0.20 o 691 3.25 No Yes
2010OL100 O C t 2010-08-19.19579 1.000E-05 13:59:13.590 1.500E-01 0.500 F 0.089 -0.075 +61° 38' 47.40" 1.000E-01 0.500 F 0.176 -1.178 o 691 2.42 Yes No
2010OF101 O C H 2010-08-19.21240 1.000E-05 16:24:41.240 1.500E-01 0.500 F 0.027 0.548 +24° 36' 02.70" 1.000E-01 0.500 F 0.240 -0.570 20.9 V 0.70 -0.35 o 691 1.59 Yes Yes
2010OF101 O C H 2010-08-19.22051 1.000E-05 16:24:42.160 1.500E-01 0.500 F 0.027 0.279 +24° 35' 49.60" 1.000E-01 0.500 F 0.240 -0.532 21.0 V 0.70 -0.25 o 691 1.21 Yes Yes
2010OF101 O C H 2010-08-19.22784 1.000E-05 16:24:42.980 1.500E-01 0.500 F 0.027 -0.139 +24° 35' 37.80" 1.000E-01 0.500 F 0.240 -0.452 o 691 0.95 Yes No
2010OK126 O C t 2010-08-19.36691 1.000E-05 01:47:42.900 1.500E-01 0.500 F -0.334 0.197 +18° 01' 09.30" 1.000E-01 0.500 F 0.253 0.058 20.2 V 0.70 -0.11 o 691 0.42 Yes Yes
2010OK126 O C t 2010-08-19.36984 1.000E-05 01:47:41.720 1.500E-01 0.500 F -0.334 0.514 +18° 01' 34.80" 1.000E-01 0.500 F 0.253 -0.454 20.2 V 0.70 -0.11 o 691 1.41 Yes Yes
2010OK126 O C t 2010-08-19.37269 1.000E-05 01:47:40.540 1.500E-01 0.500 F -0.322 0.358 +18° 01' 59.90" 1.000E-01 0.500 F 0.279 -0.681 20.4 V 0.70 0.09 o 691 1.59 Yes Yes
2010OD101 O C 2010-08-19.43124 1.000E-05 01:31:12.160 1.500E-01 0.500 F -0.121 -0.126 +37° 15' 27.10" 1.000E-01 0.500 F 0.242 -0.123 20.3 V 0.70 -0.25 o 691 0.36 Yes Yes
2010OD101 O C 2010-08-19.43411 1.000E-05 01:31:12.340 1.500E-01 0.500 F -0.121 -0.021 +37° 15' 20.60" 1.000E-01 0.500 F 0.242 0.058 20.4 V 0.70 -0.15 o 691 0.12 Yes Yes
2010OD101 O C 2010-08-19.43837 1.000E-05 01:31:12.450 1.500E-01 0.500 F -0.121 -1.738 +37° 15' 09.10" 1.000E-01 0.500 F 0.242 -1.516 19.7 V 0.70 -0.85 o 691 4.57 No Yes
2010OD101 O C 2010-08-20.42975 1.000E-05 01:32:21.570 1.500E-01 0.500 F -0.121 -0.346 +36° 36' 03.00" 1.000E-01 0.500 F 0.242 0.247 21.1 V 0.70 0.57 o 691 0.86 Yes Yes
2010OD101 O C 2010-08-20.43288 1.000E-05 01:32:21.780 1.500E-01 0.500 F -0.121 0.114 +36° 35' 55.60" 1.000E-01 0.500 F 0.242 0.277 20.8 V 0.70 0.27 o 691 0.61 Yes Yes
2010OD101 O C 2010-08-20.43605 1.000E-05 01:32:21.940 1.500E-01 0.500 F -0.121 -0.051 +36° 35' 48.20" 1.000E-01 0.500 F 0.242 0.409 20.7 V 0.70 0.18 o 691 0.84 Yes Yes
2010OB101 O C 2010-08-20.44137 1.000E-05 00:09:41.830 1.500E-01 0.500 F -0.135 -0.463 +28° 56' 43.60" 1.000E-01 0.500 F 0.201 0.050 21.5 V 0.70 0.27 o 691 0.94 Yes Yes
2010OB101 O C 2010-08-20.44623 1.000E-05 00:09:41.160 1.500E-01 0.500 F -0.135 0.119 +28° 56' 40.60" 1.000E-01 0.500 F 0.201 -0.229 20.7 V 0.70 -0.53 o 691 0.52 Yes Yes
2010OB101 O C 2010-08-20.44911 1.000E-05 00:09:40.680 1.500E-01 0.500 F -0.135 -0.627 +28° 56' 39.10" 1.000E-01 0.500 F 0.201 -0.113 20.8 V 0.70 -0.43 o 691 1.28 Yes Yes
2010OK126 O C t 2010-08-20.45441 1.000E-05 01:40:11.860 1.500E-01 0.500 F -0.299 1.274 +20° 42' 05.00" 1.000E-01 0.500 F 0.344 -1.250 20.3 V 0.70 0.03 o 691 3.46 No Yes
2010OK126 O C t 2010-08-20.45788 1.000E-05 01:40:10.280 1.500E-01 0.500 F -0.299 0.410 +20° 42' 37.00" 1.000E-01 0.500 F 0.344 -0.136 21.0 V 0.70 0.73 o 691 0.89 Yes Yes
2010OK126 O C t 2010-08-20.46131 1.000E-05 01:40:08.770 1.500E-01 0.500 F -0.299 0.287 +20° 43' 07.50" 1.000E-01 0.500 F 0.344 -0.162 20.4 V 0.70 0.13 o 691 0.68 Yes Yes
1997GH28 O C 2010-09-04.29549 1.000E-05 01:08:28.330 1.500E-01 0.500 F -0.077 -0.578 +08° 35' 43.80" 1.000E-01 0.500 F 0.354 -0.152 20.3 V 0.70 0.47 o 691 1.19 Yes Yes
1950DA O C 2010-09-04.30346 1.000E-05 01:00:51.760 1.500E-01 0.500 F -0.151 -0.209 +08° 01' 58.10" 1.000E-01 0.500 F 0.340 0.237 19.8 V 0.70 -0.14 o 691 0.63 Yes Yes
1997GH28 O C 2010-09-04.30592 1.000E-05 01:08:28.130 1.500E-01 0.500 F -0.077 -0.390 +08° 35' 47.00" 1.000E-01 0.500 F 0.354 0.017 19.5 V 0.70 -0.33 o 691 0.78 Yes Yes
1950DA O C 2010-09-04.32114 1.000E-05 01:00:50.270 1.500E-01 0.500 F -0.151 0.389 +08° 01' 56.10" 1.000E-01 0.500 F 0.340 0.084 19.8 V 0.70 -0.14 o 691 0.80 Yes Yes
1997GH28 O C 2010-09-04.32363 1.000E-05 01:08:27.770 1.500E-01 0.500 F -0.077 -0.319 +08° 35' 52.10" 1.000E-01 0.500 F 0.354 -0.019 19.6 V 0.70 -0.23 o 691 0.63 Yes Yes
1950DA O C 2010-09-04.33887 1.000E-05 01:00:48.700 1.500E-01 0.500 F -0.151 -0.091 +08° 01' 54.40" 1.000E-01 0.500 F 0.340 0.251 19.8 V 0.70 -0.14 o 691 0.53 Yes Yes
2001FD90 O C H 2010-09-06.22486 1.000E-05 00:47:23.410 1.500E-01 0.500 F -0.208 -0.324 +11° 26' 41.70" 1.000E-01 0.500 F 0.283 -0.840 20.7 V 0.70 -0.39 o 691 1.81 Yes Yes
2001FD90 O C H 2010-09-06.24252 1.000E-05 00:47:22.210 1.500E-01 0.500 F -0.208 0.133 +11° 26' 31.30" 1.000E-01 0.500 F 0.283 0.639 21.4 V 0.70 0.31 o 691 1.31 Yes Yes
2001FD90 O C H 2010-09-06.26019 1.000E-05 00:47:20.970 1.500E-01 0.500 F -0.208 0.096 +11° 26' 19.00" 1.000E-01 0.500 F 0.283 0.242 o 691 0.52 Yes No
2002DY3 O C 2010-09-06.29235 1.000E-05 01:03:03.550 1.500E-01 0.500 F -0.107 -0.518 +10° 37' 33.80" 1.000E-01 0.500 F 0.343 0.129 o 691 1.07 Yes No
2002DY3 O C 2010-09-06.31004 1.000E-05 01:03:02.000 1.500E-01 0.500 F -0.107 -0.437 +10° 37' 51.50" 1.000E-01 0.500 F 0.343 -0.041 o 691 0.88 Yes No
2002DY3 O C 2010-09-06.32772 1.000E-05 01:03:00.460 1.500E-01 0.500 F -0.107 -0.141 +10° 38' 09.10" 1.000E-01 0.500 F 0.343 -0.282 o 691 0.63 Yes No
2010RJ42 O C 2010-09-07.34379 1.000E-05 22:15:27.510 1.500E-01 0.500 F -0.084 -0.229 -14° 53' 12.50" 1.000E-01 0.500 F 0.162 0.273 20.3 V 0.70 0.07 o 691 0.72 Yes Yes
2010RJ42 O C 2010-09-07.34655 1.000E-05 22:15:27.020 1.500E-01 0.500 F -0.084 -0.322 -14° 53' 08.30" 1.000E-01 0.500 F 0.162 -0.127 20.5 V 0.70 0.27 o 691 0.71 Yes Yes
2010RJ42 O C 2010-09-07.34953 1.000E-05 22:15:26.490 1.500E-01 0.500 F -0.084 -0.440 -14° 53' 03.10" 1.000E-01 0.500 F 0.162 0.105 20.4 V 0.70 0.17 o 691 0.92 Yes Yes
2010JE O C t 2010-09-08.20841 1.000E-05 20:05:15.350 1.500E-01 0.500 F -0.029 0.440 +56° 50' 10.80" 1.000E-01 0.500 F 0.259 -0.249 19.2 V 0.70 -0.47 o 691 1.10 Yes Yes
2010JE O C t 2010-09-08.21137 1.000E-05 20:05:17.290 1.500E-01 0.500 F -0.029 0.535 +56° 50' 03.20" 1.000E-01 0.500 F 0.259 -0.277 19.3 V 0.70 -0.37 o 691 1.31 Yes Yes
2010JE O C t 2010-09-08.21413 1.000E-05 20:05:19.050 1.500E-01 0.500 F -0.029 0.223 +56° 49' 56.10" 1.000E-01 0.500 F 0.259 -0.306 19.1 V 0.70 -0.57 o 691 0.82 Yes Yes
2010PD57 O C 2010-09-08.26809 1.000E-05 22:18:51.470 1.500E-01 0.500 F -0.104 0.043 +19° 28' 34.70" 1.000E-01 0.500 F 0.202 0.048 20.4 V 0.70 -0.15 o 691 0.13 Yes Yes
2010PD57 O C 2010-09-08.27228 1.000E-05 22:18:51.720 1.500E-01 0.500 F -0.104 -0.036 +19° 28' 46.00" 1.000E-01 0.500 F 0.202 -0.234 20.3 V 0.70 -0.25 o 691 0.49 Yes Yes
2010PD57 O C 2010-09-08.27545 1.000E-05 22:18:51.910 1.500E-01 0.500 F -0.104 -0.084 +19° 28' 54.90" 1.000E-01 0.500 F 0.202 -0.090 20.3 V 0.70 -0.25 o 691 0.25 Yes Yes
1950DA O C 2010-09-09.21600 1.000E-05 00:53:36.130 1.500E-01 0.500 F -0.098 -0.613 +07° 50' 39.20" 1.000E-01 0.500 F 0.297 0.133 19.8 V 0.70 -0.05 o 691 1.26 Yes Yes
1950DA O C 2010-09-09.23362 1.000E-05 00:53:34.480 1.500E-01 0.500 F -0.098 -0.402 +07° 50' 36.50" 1.000E-01 0.500 F 0.297 0.311 19.9 V 0.70 0.05 o 691 1.02 Yes Yes
1950DA O C 2010-09-09.25125 1.000E-05 00:53:32.790 1.500E-01 0.500 F -0.098 -0.698 +07° 50' 33.30" 1.000E-01 0.500 F 0.297 0.001 19.8 V 0.70 -0.05 o 691 1.40 Yes Yes
2000EY106 O C 2010-09-09.27278 1.000E-05 01:26:01.610 1.500E-01 0.500 F -0.222 -0.201 +07° 39' 25.20" 1.000E-01 0.500 F 0.279 0.138 20.4 V 0.70 0.39 o 691 0.49 Yes Yes
2000EY106 O C 2010-09-09.29042 1.000E-05 01:25:59.500 1.500E-01 0.500 F -0.222 -1.042 +07° 40' 09.30" 1.000E-01 0.500 F 0.279 0.352 20.0 V 0.70 -0.01 o 691 2.22 Yes Yes
2000EY106 O C 2010-09-09.30806 1.000E-05 01:25:57.450 1.500E-01 0.500 F -0.222 -0.848 +07° 40' 53.40" 1.000E-01 0.500 F 0.279 0.556 20.6 V 0.70 0.60 o 691 2.04 Yes Yes
2001XD O C H 2010-09-09.45348 1.000E-05 06:56:39.520 1.500E-01 0.500 F -0.107 0.367 +21° 41' 16.70" 1.000E-01 0.500 F 0.218 -0.624 o 691 1.45 Yes No
2001HH31 O C H 2010-09-09.45597 1.000E-05 07:08:01.810 1.500E-01 0.500 F -0.107 0.751 +21° 51' 07.00" 1.000E-01 0.500 F 0.170 -0.842 o 691 2.26 Yes No
2001XD O C H 2010-09-09.46618 1.000E-05 06:56:40.310 1.500E-01 0.500 F -0.107 -0.268 +21° 41' 19.20" 1.000E-01 0.500 F 0.218 -0.986 o 691 2.05 Yes No
2001HH31 O C H 2010-09-09.46865 1.000E-05 07:08:03.690 1.500E-01 0.500 F -0.107 -0.365 +21° 51' 09.30" 1.000E-01 0.500 F 0.170 -0.502 21.0 V 0.70 -0.02 o 691 1.24 Yes Yes
2001XD O C H 2010-09-09.47888 1.000E-05 06:56:41.170 1.500E-01 0.500 F -0.107 0.106 +21° 41' 22.40" 1.000E-01 0.500 F 0.218 -0.642 o 691 1.30 Yes No
2002DY3 O C H 2010-09-10.24306 1.000E-05 00:56:57.420 1.500E-01 0.500 F -0.185 0.551 +11° 44' 03.40" 1.000E-01 0.500 F 0.271 -0.529 o 691 1.53 Yes No
2001FD90 O C H 2010-09-10.24823 1.000E-05 00:42:39.470 1.500E-01 0.500 F -0.263 -1.042 +10° 39' 01.10" 1.000E-01 0.500 F 0.233 0.087 21.1 V 0.70 0.07 o 691 2.10 Yes Yes
2002DY3 O C H 2010-09-10.26076 1.000E-05 00:56:55.510 1.500E-01 0.500 F -0.185 -0.470 +11° 44' 22.20" 1.000E-01 0.500 F 0.271 0.144 19.9 V 0.70 0.13 o 691 0.98 Yes Yes
2001FD90 O C H 2010-09-10.26593 1.000E-05 00:42:38.160 1.500E-01 0.500 F -0.263 -0.605 +10° 38' 47.60" 1.000E-01 0.500 F 0.233 -0.422 21.0 V 0.70 -0.03 o 691 1.48 Yes Yes
2002DY3 O C H 2010-09-10.27848 1.000E-05 00:56:53.650 1.500E-01 0.500 F -0.185 -0.621 +11° 44' 40.30" 1.000E-01 0.500 F 0.271 0.114 19.9 V 0.70 0.13 o 691 1.27 Yes Yes
2001FD90 O C H 2010-09-10.28369 1.000E-05 00:42:36.820 1.500E-01 0.500 F -0.263 -0.478 +10° 38' 34.80" 1.000E-01 0.500 F 0.233 -0.168 21.4 V 0.70 0.37 o 691 1.02 Yes Yes
2010RA147 O C 2010-09-10.36253 1.000E-05 01:35:22.560 1.500E-01 0.500 F -0.143 -0.269 +09° 18' 53.10" 1.000E-01 0.500 F 0.259 0.735 21.0 V 0.70 -0.41 o 691 1.59 Yes Yes
2010RA147 O C 2010-09-10.38028 1.000E-05 01:35:22.220 1.500E-01 0.500 F -0.143 -0.123 +09° 18' 54.00" 1.000E-01 0.500 F 0.259 -0.809 21.1 V 0.70 -0.31 o 691 1.66 Yes Yes
2010RA147 O C 2010-09-10.39802 1.000E-05 01:35:21.700 1.500E-01 0.500 F -0.143 -2.615 +09° 18' 52.90" 1.000E-01 0.500 F 0.259 -4.333 21.6 V 0.70 0.19 o 691 10.04 No Yes
2010FL O C H 2010-09-10.41681 1.000E-05 05:08:21.840 1.500E-01 0.500 F -0.183 -0.086 +12° 52' 14.40" 1.000E-01 0.500 F 0.197 -0.715 o 691 1.45 Yes No
2010FL O C H 2010-09-10.43554 1.000E-05 05:08:22.000 1.500E-01 0.500 F -0.183 -0.249 +12° 52' 17.40" 1.000E-01 0.500 F 0.197 -0.979 o 691 2.03 Yes No
2010FL O C H 2010-09-10.45425 1.000E-05 05:08:22.170 1.500E-01 0.500 F -0.183 -0.176 +12° 52' 21.00" 1.000E-01 0.500 F 0.197 -0.621 o 691 1.30 Yes No
1998OR2 O C H 2010-09-11.24923 1.000E-05 00:59:13.020 1.500E-01 0.500 F -0.239 -0.793 +03° 28' 05.10" 1.000E-01 0.500 F 0.247 0.007 o 691 1.59 Yes No
2001MT18 O C 2010-09-11.25170 1.000E-05 01:08:18.320 1.500E-01 0.500 F -0.240 -0.337 +03° 29' 03.20" 1.000E-01 0.500 F 0.202 -0.465 20.2 V 0.70 -0.13 o 691 1.15 Yes Yes
1998OR2 O C H 2010-09-11.26688 1.000E-05 00:59:12.220 1.500E-01 0.500 F -0.239 -0.367 +03° 28' 00.50" 1.000E-01 0.500 F 0.247 0.038 o 691 0.74 Yes No
2001MT18 O C 2010-09-11.26934 1.000E-05 01:08:17.000 1.500E-01 0.500 F -0.240 -0.201 +03° 28' 48.30" 1.000E-01 0.500 F 0.202 -0.020 20.3 V 0.70 -0.03 o 691 0.40 Yes Yes
1998OR2 O C H 2010-09-11.28451 1.000E-05 00:59:11.350 1.500E-01 0.500 F -0.239 -0.977 +03° 27' 56.50" 1.000E-01 0.500 F 0.247 0.667 21.0 V 0.70 -0.47 o 691 2.37 Yes Yes
2001MT18 O C 2010-09-11.28697 1.000E-05 01:08:15.650 1.500E-01 0.500 F -0.240 -0.444 +03° 28' 33.20" 1.000E-01 0.500 F 0.202 0.228 20.1 V 0.70 -0.23 o 691 1.00 Yes Yes
2010PM10 O C 2010-09-11.30659 1.000E-05 01:14:24.310 1.500E-01 0.500 F -0.212 -0.312 +12° 59' 12.00" 1.000E-01 0.500 F 0.319 -0.136 18.7 V 0.70 0.11 o 691 0.69 Yes Yes
2010PM10 O C 2010-09-11.32432 1.000E-05 01:14:26.440 1.500E-01 0.500 F -0.212 -0.226 +12° 59' 33.70" 1.000E-01 0.500 F 0.319 -0.052 18.8 V 0.70 0.21 o 691 0.47 Yes Yes
2010PM10 O C 2010-09-11.34206 1.000E-05 01:14:28.560 1.500E-01 0.500 F -0.212 -0.162 +12° 59' 55.30" 1.000E-01 0.500 F 0.319 -0.005 18.7 V 0.70 0.11 o 691 0.33 Yes Yes
2002TC70 O C 2010-09-11.36005 1.000E-05 01:44:50.880 1.500E-01 0.500 F -0.185 -0.371 +02° 56' 43.20" 1.000E-01 0.500 F 0.249 -0.031 19.6 V 0.70 0.12 o 691 0.75 Yes Yes
2002TC70 O C 2010-09-11.37769 1.000E-05 01:44:49.990 1.500E-01 0.500 F -0.185 -0.359 +02° 56' 31.30" 1.000E-01 0.500 F 0.249 -0.068 19.6 V 0.70 0.12 o 691 0.74 Yes Yes
2002TC70 O C 2010-09-11.39533 1.000E-05 01:44:49.080 1.500E-01 0.500 F -0.185 -0.545 +02° 56' 19.40" 1.000E-01 0.500 F 0.249 -0.081 19.7 V 0.70 0.22 o 691 1.11 Yes Yes
2002FA5 O C 2010-09-11.41995 1.000E-05 05:13:04.970 1.500E-01 0.500 F -0.106 0.001 +00° 32' 51.30" 1.000E-01 0.500 F 0.124 0.146 20.5 V 0.70 -0.46 o 691 0.29 Yes Yes
2002FA5 O C 2010-09-11.44163 1.000E-05 05:13:06.550 1.500E-01 0.500 F -0.106 -0.039 +00° 32' 32.20" 1.000E-01 0.500 F 0.124 0.040 20.5 V 0.70 -0.46 o 691 0.11 Yes Yes
2002FA5 O C 2010-09-11.46032 1.000E-05 05:13:07.900 1.500E-01 0.500 F -0.106 -0.195 +00° 32' 15.90" 1.000E-01 0.500 F 0.124 0.119 20.6 V 0.70 -0.36 o 691 0.46 Yes Yes
2000AB246 O C H 2010-09-11.48624 1.000E-05 06:56:39.260 1.500E-01 0.500 F -0.068 -0.149 +25° 04' 56.40" 1.000E-01 0.500 F 0.139 -0.632 o 691 1.30 Yes No
2000AB246 O C H 2010-09-11.49894 1.000E-05 06:56:40.840 1.500E-01 0.500 F -0.068 1.399 +25° 04' 56.50" 1.000E-01 0.500 F 0.139 -0.124 o 691 2.82 Yes No
Amor O C H 2010-09-12.29074 1.000E-05 01:28:16.020 1.500E-01 0.500 F -0.156 -0.209 +03° 01' 14.90" 1.000E-01 0.500 F 0.198 -0.306 21.7 V 0.70 0.11 o 691 0.74 Yes Yes
2007BG49 O C H 2010-09-14.18240 1.000E-05 00:27:30.100 1.500E-01 0.500 F -0.056 -0.052 +11° 30' 01.30" 1.000E-01 0.500 F 0.277 -0.111 20.6 V 0.70 0.23 o 691 0.25 Yes Yes
2007BG49 O C H 2010-09-14.20011 1.000E-05 00:27:28.590 1.500E-01 0.500 F -0.056 1.308 +11° 29' 59.10" 1.000E-01 0.500 F 0.277 -0.249 20.5 V 0.70 0.13 o 691 2.68 Yes Yes
2007BG49 O C H 2010-09-14.21776 1.000E-05 00:27:26.930 1.500E-01 0.500 F -0.056 0.474 +11° 29' 56.80" 1.000E-01 0.500 F 0.277 -0.476 o 691 1.35 Yes No
2001FD90 O C H 2010-09-14.24470 1.000E-05 00:37:39.760 1.500E-01 0.500 F -0.170 0.733 +09° 48' 08.30" 1.000E-01 0.500 F 0.265 0.240 21.5 V 0.70 0.53 o 691 1.55 Yes Yes
2001FD90 O C H 2010-09-14.28356 1.000E-05 00:37:36.630 1.500E-01 0.500 F -0.170 0.116 +09° 47' 37.70" 1.000E-01 0.500 F 0.265 -0.004 o 691 0.23 Yes No
2000EY106 O C 2010-09-14.30002 1.000E-05 01:14:49.250 1.500E-01 0.500 F -0.252 0.264 +11° 26' 31.50" 1.000E-01 0.500 F 0.308 -0.305 19.8 V 0.70 0.17 o 691 0.81 Yes Yes
1997GH28 O C 2010-09-14.30519 1.000E-05 01:03:25.950 1.500E-01 0.500 F -0.076 -0.093 +09° 17' 22.90" 1.000E-01 0.500 F 0.339 0.041 19.8 V 0.70 0.42 o 691 0.20 Yes Yes
2000EY106 O C 2010-09-14.31770 1.000E-05 01:14:46.340 1.500E-01 0.500 F -0.252 -0.273 +11° 27' 24.10" 1.000E-01 0.500 F 0.308 -0.042 20.0 V 0.70 0.37 o 691 0.56 Yes Yes
1997GH28 O C 2010-09-14.32287 1.000E-05 01:03:25.110 1.500E-01 0.500 F -0.076 -0.394 +09° 17' 26.80" 1.000E-01 0.500 F 0.339 0.144 19.8 V 0.70 0.42 o 691 0.84 Yes Yes
2000EY106 O C 2010-09-14.33538 1.000E-05 01:14:43.480 1.500E-01 0.500 F -0.252 0.043 +11° 28' 16.40" 1.000E-01 0.500 F 0.308 -0.077 19.9 V 0.70 0.27 o 691 0.18 Yes Yes
1997GH28 O C 2010-09-14.34056 1.000E-05 01:03:24.300 1.500E-01 0.500 F -0.076 -0.198 +09° 17' 30.30" 1.000E-01 0.500 F 0.339 -0.136 19.8 V 0.70 0.42 o 691 0.48 Yes Yes
2004TX37 O C 2010-09-14.35830 1.000E-05 01:44:21.180 1.500E-01 0.500 F -0.081 -0.091 +11° 26' 30.60" 1.000E-01 0.500 F 0.238 0.074 21.2 V 0.70 -0.28 o 691 0.24 Yes Yes
2010RA147 O C 2010-09-14.36594 1.000E-05 01:33:55.090 1.500E-01 0.500 F -0.119 -0.455 +09° 26' 55.90" 1.000E-01 0.500 F 0.246 -0.197 21.1 V 0.70 -0.07 o 691 1.00 Yes Yes
2004TX37 O C 2010-09-14.37599 1.000E-05 01:44:20.580 1.500E-01 0.500 F -0.081 -1.101 +11° 26' 26.60" 1.000E-01 0.500 F 0.238 -0.503 21.8 V 0.70 0.32 o 691 2.44 Yes Yes
2010RA147 O C 2010-09-14.38365 1.000E-05 01:33:54.540 1.500E-01 0.500 F -0.119 -0.405 +09° 26' 59.10" 1.000E-01 0.500 F 0.246 1.120 20.5 V 0.70 -0.67 o 691 2.42 Yes Yes
2004TX37 O C 2010-09-14.39369 1.000E-05 01:44:20.120 1.500E-01 0.500 F -0.081 -0.038 +11° 26' 23.10" 1.000E-01 0.500 F 0.238 -0.570 21.2 V 0.70 -0.28 o 691 1.15 Yes Yes
2010RA147 O C 2010-09-14.40134 1.000E-05 01:33:54.010 1.500E-01 0.500 F -0.119 -0.046 +09° 26' 59.90" 1.000E-01 0.500 F 0.246 0.059 21.2 V 0.70 0.03 o 691 0.15 Yes Yes
Manawydan O C H 2010-09-14.47322 1.000E-05 06:41:13.310 1.500E-01 0.500 F -0.129 -0.059 +20° 21' 10.80" 1.000E-01 0.500 F 0.158 -0.413 o 691 0.84 Yes No
Manawydan O C H 2010-09-14.49860 1.000E-05 06:41:16.680 1.500E-01 0.500 F -0.129 0.466 +20° 20' 37.20" 1.000E-01 0.500 F 0.158 0.681 21.7 V 0.70 -0.37 o 691 1.65 Yes Yes
2010PS66 O C 2010-09-15.25002 1.000E-05 00:40:44.720 1.500E-01 0.500 F -0.187 -0.158 +03° 47' 31.10" 1.000E-01 0.500 F 0.098 0.123 20.8 V 0.70 -0.39 o 691 0.41 Yes Yes
2010RQ64 O C t 2010-09-15.25002 1.000E-05 00:41:04.210 1.500E-01 0.500 F -0.175 0.712 +02° 30' 21.90" 1.000E-01 0.500 F 0.234 -0.184 20.4 V 0.70 0.12 o 691 1.67 Yes Yes
1998OR2 O C H 2010-09-15.25495 1.000E-05 00:56:02.430 1.500E-01 0.500 F -0.227 -0.617 +03° 10' 01.40" 1.000E-01 0.500 F 0.230 0.353 21.2 V 0.70 -0.20 o 691 1.42 Yes Yes
2001MT18 O C H 2010-09-15.25741 1.000E-05 01:03:02.970 1.500E-01 0.500 F -0.233 0.192 +02° 27' 50.90" 1.000E-01 0.500 F 0.241 -0.042 20.6 V 0.70 0.45 o 691 0.39 Yes Yes
2010PS66 O C 2010-09-15.26766 1.000E-05 00:40:43.910 1.500E-01 0.500 F -0.187 0.242 +03° 47' 16.40" 1.000E-01 0.500 F 0.098 0.217 21.2 V 0.70 0.01 o 691 0.67 Yes Yes
2010RQ64 O C t 2010-09-15.26766 1.000E-05 00:41:14.920 1.500E-01 0.500 F -0.175 0.688 +02° 32' 13.90" 1.000E-01 0.500 F 0.234 -0.073 19.9 V 0.70 -0.39 o 691 1.57 Yes Yes
2001MT18 O C H 2010-09-15.27505 1.000E-05 01:03:01.400 1.500E-01 0.500 F -0.233 -0.259 +02° 27' 33.30" 1.000E-01 0.500 F 0.241 -0.720 20.8 V 0.70 0.65 o 691 1.53 Yes Yes
2010PS66 O C 2010-09-15.28529 1.000E-05 00:40:43.000 1.500E-01 0.500 F -0.187 -0.375 +03° 47' 01.20" 1.000E-01 0.500 F 0.098 -0.152 21.2 V 0.70 0.01 o 691 0.83 Yes Yes
2010RQ64 O C t 2010-09-15.28529 1.000E-05 00:41:25.460 1.500E-01 0.500 F -0.175 -0.163 +02° 34' 04.40" 1.000E-01 0.500 F 0.234 -0.986 20.5 V 0.70 0.21 o 691 2.21 Yes Yes
1998OR2 O C H 2010-09-15.29022 1.000E-05 00:56:00.660 1.500E-01 0.500 F -0.227 -0.728 +03° 09' 50.70" 1.000E-01 0.500 F 0.230 -0.573 21.0 V 0.70 -0.40 o 691 1.85 Yes Yes
2001MT18 O C H 2010-09-15.29268 1.000E-05 01:02:59.910 1.500E-01 0.500 F -0.233 0.548 +02° 27' 17.30" 1.000E-01 0.500 F 0.241 0.203 20.6 V 0.70 0.45 o 691 1.17 Yes Yes
2007BG49 O C 2010-09-16.18606 1.000E-05 00:24:31.520 1.500E-01 0.500 F -0.010 -0.600 +11° 25' 17.70" 1.000E-01 0.500 F 0.351 0.048 20.1 V 0.70 -0.24 o 691 1.21 Yes Yes
2007BG49 O C 2010-09-16.20675 1.000E-05 00:24:29.650 1.500E-01 0.500 F -0.010 -0.087 +11° 25' 14.50" 1.000E-01 0.500 F 0.351 -0.073 20.3 V 0.70 -0.04 o 691 0.23 Yes Yes
2007BG49 O C 2010-09-16.22448 1.000E-05 00:24:27.980 1.500E-01 0.500 F -0.010 -0.548 +11° 25' 11.80" 1.000E-01 0.500 F 0.351 -0.113 20.3 V 0.70 -0.04 o 691 1.13 Yes Yes
2001MT18 O C 2010-09-16.24574 1.000E-05 01:01:38.110 1.500E-01 0.500 F -0.182 -0.737 +02° 11' 51.20" 1.000E-01 0.500 F 0.230 -0.223 20.2 V 0.70 0.09 o 691 1.54 Yes Yes
2001MT18 O C 2010-09-16.26341 1.000E-05 01:01:36.540 1.500E-01 0.500 F -0.182 -0.449 +02° 11' 34.00" 1.000E-01 0.500 F 0.230 -0.110 20.2 V 0.70 0.09 o 691 0.92 Yes Yes
2001MT18 O C 2010-09-16.28107 1.000E-05 01:01:34.970 1.500E-01 0.500 F -0.182 -0.096 +02° 11' 16.60" 1.000E-01 0.500 F 0.230 -0.196 20.1 V 0.70 -0.01 o 691 0.44 Yes Yes
2010PM10 O C 2010-09-16.36080 1.000E-05 01:25:09.930 1.500E-01 0.500 F -0.170 0.030 +14° 37' 35.30" 1.000E-01 0.500 F 0.340 -0.162 18.6 V 0.70 0.14 o 691 0.33 Yes Yes
2010OD101 O C 2010-09-16.36573 1.000E-05 01:35:25.720 1.500E-01 0.500 F -0.387 -0.072 +14° 41' 13.50" 1.000E-01 0.500 F 0.262 -0.276 20.0 V 0.70 0.06 o 691 0.58 Yes Yes
2010PM10 O C 2010-09-16.37851 1.000E-05 01:25:11.910 1.500E-01 0.500 F -0.170 -0.217 +14° 37' 55.50" 1.000E-01 0.500 F 0.340 -0.029 18.6 V 0.70 0.14 o 691 0.44 Yes Yes
2010OD101 O C 2010-09-16.38345 1.000E-05 01:35:24.770 1.500E-01 0.500 F -0.387 -0.082 +14° 40' 16.40" 1.000E-01 0.500 F 0.262 -0.039 19.8 V 0.70 -0.14 o 691 0.19 Yes Yes
2010PM10 O C 2010-09-16.39618 1.000E-05 01:25:13.910 1.500E-01 0.500 F -0.170 -0.093 +14° 38' 15.50" 1.000E-01 0.500 F 0.340 0.044 18.5 V 0.70 0.04 o 691 0.21 Yes Yes
2010OD101 O C 2010-09-16.40112 1.000E-05 01:35:23.850 1.500E-01 0.500 F -0.387 0.327 +14° 39' 19.00" 1.000E-01 0.500 F 0.262 -0.190 19.9 V 0.70 -0.04 o 691 0.77 Yes Yes
2001XD O C H 2010-09-16.48715 1.000E-05 07:03:48.550 1.500E-01 0.500 F -0.092 -0.085 +22° 06' 27.70" 1.000E-01 0.500 F 0.208 -0.476 21.4 V 0.70 -0.15 o 691 0.97 Yes Yes
2001XD O C H 2010-09-16.49988 1.000E-05 07:03:49.250 1.500E-01 0.500 F -0.092 0.243 +22° 06' 30.40" 1.000E-01 0.500 F 0.208 -0.656 o 691 1.40 Yes No

[1-200] [201-400] [401-600] [601-800] [801-1000] [1001-1200] [1201-1400] [1401-1600] [1601-1800] [1801-2000] [2001-2200] [2201-2400] [2401-2600] [2601-2800] [2801-3000] [3001-3200] [3201-3400] [3401-3600] [3601-3800] [3801-4000] [4001-4200] [4201-4400] [4401-4600] [4601-4800] [4801-5000] [5001-5200] [5201-5400] [5401-5600] [5601-5800] [5801-6000] [6001-6200] [6201-6400] [6401-6600] [6601-6800] [6801-7000] [7001-7200] [7201-7400] [7401-7600] [7601-7800] [7801-8000] [8001-8200] [8201-8400] [8401-8600] [8601-8800] [8801-9000] [9001-9200] [9201-9400] [9401-9600] [9601-9800] [9801-10000] [10001-10200] [10201-10400] [10401-10600] [10601-10800] [10801-11000] [11001-11200] [11201-11400] [11401-11600] [11601-11800] [11801-12000] [12001-12200] [12201-12400] [12401-12600] [12601-12800] [12801-13000] [13001-13200] [13201-13400] [13401-13600] [13601-13800] [13801-14000] [14001-14200] [14201-14400] [14401-14600] [14601-14800] [14801-15000] [15001-15200] [15201-15400] [15401-15600] [15601-15800] [15801-16000] [16001-16200] [16201-16400] [16401-16600] [16601-16800] [16801-17000] [17001-17200] [17201-17400] [17401-17600] [17601-17800] [17801-18000] [18001-18200] [18201-18400] [18401-18600] [18601-18800] [18801-19000] [19001-19200] [19201-19400] [19401-19600] [19601-19800] [19801-20000] [20001-20200] [20201-20400] [20401-20600] [20601-20800] [20801-21000] [21001-21200] [21201-21400] [21401-21600] [21601-21800] [21801-22000] [22001-22200] [22201-22400] [22401-22600] [22601-22800] [22801-23000] [23001-23200] [23201-23400] [23401-23600] [23601-23800] [23801-24000] [24001-24200] [24201-24400] [24401-24600] [24601-24800] [24801-25000] [25001-25200] [25201-25400] [25401-25600] [25601-25800] [25801-26000] [26001-26200] [26201-26400] [26401-26600] [26601-26800] [26801-27000] [27001-27200] [27201-27400] [27401-27600] [27601-27800] [27801-28000] [28001-28200] [28201-28400] [28401-28600] [28601-28800] [28801-29000] [29001-29200] [29201-29400] [29401-29600] [29601-29800] [29801-30000] [30001-30200] [30201-30400] [30401-30600] [30601-30800] [30801-31000] [31001-31200] [31201-31400] [31401-31600] [31601-31800] [31801-32000] [32001-32200] [32201-32400] [32401-32600] [32601-32800] [32801-33000] [33001-33200] [33201-33400] [33401-33600] [33601-33800] [33801-34000] [34001-34200] [34201-34400] [34401-34600] [34601-34800] [34801-35000] [35001-35200] [35201-35400] [35401-35600] [35601-35800] [35801-36000] [36001-36200] [36201-36400] [36401-36600] [36601-36800] [36801-37000] [37001-37200] [37201-37400] [37401-37600] [37601-37800] [37801-38000] [38001-38200] [38201-38400] [38401-38600] [38601-38800] [38801-39000] [39001-39200] [39201-39400] [39401-39600] [39601-39800] [39801-40000] [40001-40200] [40201-40400] [40401-40600] [40601-40800] [40801-41000] [41001-41200] [41201-41400] [41401-41600] [41601-41800] [41801-42000] [42001-42200] [42201-42400] [42401-42600] [42601-42800] [42801-43000] [43001-43200] [43201-43400] [43401-43600] [43601-43800] [43801-44000] [44001-44200] [44201-44400] [44401-44600] [44601-44800] [44801-45000] [45001-45200] [45201-45400] [45401-45600] [45601-45800] [45801-46000] [46001-46200] [46201-46400] [46401-46600] [46601-46800] [46801-47000] [47001-47200] [47201-47400] [47401-47600] [47601-47800] [47801-48000] [48001-48200] [48201-48400] [48401-48600] [48601-48800] [48801-49000] [49001-49200] [49201-49400] [49401-49600] [49601-49800] [49801-50000] [50001-50200] [50201-50388]